< Cyclone 199002 1990 Season Cyclone 199004 >
Cyclone 199003 (ROSITA)
General InformationTrack Information on Google MapsDetailed Wind InformationList of All Images || ResourceGoogle EarthGE AnimationAtom FeedGeoJSON
Detalied Best Track (Time Zone = UTC)
Year Month Day Hour Lat. Long. Pressure (hPa) Wind (kt) Class Image Chart
1990 1 4 18 -12.6 111.7 1004 25 2 Image --
1990 1 5 00 -12.7 110.6 1004 25 2 Image --
1990 1 5 06 -12.8 109.8 1002 27 2 Image --
1990 1 5 12 -12.9 108.5 1001 29 2 Image --
1990 1 5 18 -13.1 107.0 1001 29 2 Image --
1990 1 6 00 -13.3 105.7 1000 31 2 Image --
1990 1 6 06 -13.7 104.4 998 35 3 Image --
1990 1 6 12 -13.9 104.2 1000 31 2 Image --
1990 1 6 18 -14.2 103.8 1000 31 2 Image --
1990 1 7 00 -14.5 103.6 1000 31 2 Image --
1990 1 7 06 -14.9 103.4 1000 31 2 Image --
1990 1 7 12 -15.1 103.6 1001 29 2 Image --
1990 1 7 18 -15.1 103.8 1001 29 2 Image --
1990 1 8 00 -15.0 104.2 1002 27 2 Image --
1990 1 8 06 -14.8 104.3 1002 27 2 Image --
1990 1 8 12 -14.3 104.3 1002 27 2 Image --
1990 1 8 18 -13.9 104.2 1002 27 2 Image --
1990 1 9 00 -13.4 104.1 1003 27 2 Image --
1990 1 9 06 -13.1 103.8 1004 25 2 Image --
1990 1 9 12 -12.2 103.2 1004 25 2 Image --
1990 1 9 18 -11.5 102.6 1003 27 2 Image --
1990 1 10 00 -10.7 102.0 1002 27 2 Image --
1990 1 10 06 -9.9 101.3 1000 31 2 Image --
1990 1 10 12 -9.7 100.4 1000 31 2 Image --
1990 1 10 18 -9.9 100.2 1000 31 2 Image --
1990 1 11 00 -10.2 100.1 1000 31 2 Image --
1990 1 11 06 -10.4 100.1 1000 31 2 Image --
1990 1 11 12 -10.7 100.1 1000 31 2 Image --
1990 1 11 18 -10.9 100.3 1000 31 2 Image --
1990 1 12 00 -11.0 100.6 1000 31 2 Image --
1990 1 12 06 -11.2 101.1 998 35 3 Image --
1990 1 12 12 -11.7 101.4 998 35 3 Image --
1990 1 12 18 -12.2 101.7 997 35 3 Image --
1990 1 13 00 -12.8 101.9 995 39 3 Image --
1990 1 13 06 -13.3 102.1 992 43 3 Image --
1990 1 13 12 -13.8 102.2 990 47 3 Image --
1990 1 13 18 -14.3 102.3 988 49 4 Image --
1990 1 14 00 -14.8 102.5 988 49 4 Image --
1990 1 14 06 -15.3 102.6 990 47 3 Image --
1990 1 14 12 -15.7 102.6 990 47 3 Image --
1990 1 14 18 -16.3 102.6 994 41 3 Image --
1990 1 15 00 -16.5 102.1 996 37 3 Image --
1990 1 15 06 -16.2 101.6 997 35 3 Image --
1990 1 15 12 -15.9 101.1 998 35 3 Image --
1990 1 15 18 -15.5 100.5 999 33 2 Image --
1990 1 16 00 -15.1 100.0 1000 31 2 Image --
1990 1 16 06 -14.3 99.6 1000 31 2 Image --
1990 1 16 12 -13.7 99.2 1000 31 2 Image --
1990 1 16 18 -13.1 98.8 1000 31 2 Image --
1990 1 17 00 -12.5 98.6 1000 31 2 Image --
1990 1 17 06 -11.9 98.3 1001 29 2 Image --
1990 1 17 12 -11.1 98.1 1002 27 2 Image --
< Cyclone 199002 1990 Season Cyclone 199004 >

Help